sensor_id;sensor_type;location;lat;lon;timestamp;P1;durP1;ratioP1;P2;durP2;ratioP2
9124;SDS011;4597;48.730;9.114;2023-12-22T00:01:26;1.10;;;0.63;;
9124;SDS011;4597;48.730;9.114;2023-12-22T00:03:51;0.87;;;0.60;;
9124;SDS011;4597;48.730;9.114;2023-12-22T00:06:17;2.83;;;0.90;;
9124;SDS011;4597;48.730;9.114;2023-12-22T00:08:43;0.60;;;0.60;;
9124;SDS011;4597;48.730;9.114;2023-12-22T00:11:08;0.60;;;0.60;;
9124;SDS011;4597;48.730;9.114;2023-12-22T00:13:34;1.77;;;0.93;;
9124;SDS011;4597;48.730;9.114;2023-12-22T00:15:59;1.30;;;0.83;;
9124;SDS011;4597;48.730;9.114;2023-12-22T00:18:25;2.30;;;0.97;;
9124;SDS011;4597;48.730;9.114;2023-12-22T00:20:54;2.87;;;1.10;;
9124;SDS011;4597;48.730;9.114;2023-12-22T00:23:19;1.60;;;1.07;;
9124;SDS011;4597;48.730;9.114;2023-12-22T00:25:44;3.17;;;1.40;;
9124;SDS011;4597;48.730;9.114;2023-12-22T00:28:10;2.33;;;1.03;;
9124;SDS011;4597;48.730;9.114;2023-12-22T00:30:35;1.10;;;0.73;;
9124;SDS011;4597;48.730;9.114;2023-12-22T00:33:01;3.03;;;1.00;;
9124;SDS011;4597;48.730;9.114;2023-12-22T00:35:27;0.80;;;0.80;;
9124;SDS011;4597;48.730;9.114;2023-12-22T00:37:52;0.80;;;0.80;;
9124;SDS011;4597;48.730;9.114;2023-12-22T00:40:18;1.30;;;0.73;;
9124;SDS011;4597;48.730;9.114;2023-12-22T00:42:44;2.37;;;0.90;;
9124;SDS011;4597;48.730;9.114;2023-12-22T00:45:09;0.80;;;0.60;;
9124;SDS011;4597;48.730;9.114;2023-12-22T00:47:35;3.20;;;0.93;;
9124;SDS011;4597;48.730;9.114;2023-12-22T00:50:01;0.80;;;0.80;;
9124;SDS011;4597;48.730;9.114;2023-12-22T00:52:29;1.50;;;0.63;;
9124;SDS011;4597;48.730;9.114;2023-12-22T00:54:55;1.80;;;1.17;;
9124;SDS011;4597;48.730;9.114;2023-12-22T00:57:20;1.00;;;1.00;;
9124;SDS011;4597;48.730;9.114;2023-12-22T00:59:46;1.40;;;1.03;;
9124;SDS011;4597;48.730;9.114;2023-12-22T01:02:16;1.17;;;0.60;;
9124;SDS011;4597;48.730;9.114;2023-12-22T01:04:42;0.90;;;0.90;;
9124;SDS011;4597;48.730;9.114;2023-12-22T01:07:08;1.07;;;0.70;;
9124;SDS011;4597;48.730;9.114;2023-12-22T01:09:35;3.30;;;0.90;;
9124;SDS011;4597;48.730;9.114;2023-12-22T01:12:04;0.70;;;0.70;;
9124;SDS011;4597;48.730;9.114;2023-12-22T01:14:30;2.80;;;1.20;;
9124;SDS011;4597;48.730;9.114;2023-12-22T01:16:56;2.00;;;1.20;;
9124;SDS011;4597;48.730;9.114;2023-12-22T01:19:21;1.53;;;1.00;;
9124;SDS011;4597;48.730;9.114;2023-12-22T01:21:47;1.00;;;0.90;;
9124;SDS011;4597;48.730;9.114;2023-12-22T01:24:12;0.97;;;0.70;;
9124;SDS011;4597;48.730;9.114;2023-12-22T01:26:38;6.03;;;1.00;;
9124;SDS011;4597;48.730;9.114;2023-12-22T01:29:04;1.50;;;1.40;;
9124;SDS011;4597;48.730;9.114;2023-12-22T01:31:29;2.47;;;0.90;;
9124;SDS011;4597;48.730;9.114;2023-12-22T01:33:55;1.27;;;0.90;;
9124;SDS011;4597;48.730;9.114;2023-12-22T01:36:20;1.23;;;1.00;;
9124;SDS011;4597;48.730;9.114;2023-12-22T01:38:46;1.70;;;0.87;;
9124;SDS011;4597;48.730;9.114;2023-12-22T01:41:11;1.30;;;0.77;;
9124;SDS011;4597;48.730;9.114;2023-12-22T01:43:37;0.87;;;0.87;;
9124;SDS011;4597;48.730;9.114;2023-12-22T01:46:03;2.37;;;0.90;;
9124;SDS011;4597;48.730;9.114;2023-12-22T01:48:29;0.50;;;0.50;;
9124;SDS011;4597;48.730;9.114;2023-12-22T01:50:55;0.90;;;0.60;;
9124;SDS011;4597;48.730;9.114;2023-12-22T01:53:24;0.77;;;0.60;;
9124;SDS011;4597;48.730;9.114;2023-12-22T01:55:51;1.53;;;1.20;;
9124;SDS011;4597;48.730;9.114;2023-12-22T01:58:19;0.93;;;0.70;;
9124;SDS011;4597;48.730;9.114;2023-12-22T02:00:45;4.13;;;1.80;;
9124;SDS011;4597;48.730;9.114;2023-12-22T02:03:11;0.70;;;0.70;;
9124;SDS011;4597;48.730;9.114;2023-12-22T02:05:37;0.67;;;0.60;;
9124;SDS011;4597;48.730;9.114;2023-12-22T02:08:05;0.63;;;0.63;;
9124;SDS011;4597;48.730;9.114;2023-12-22T02:10:31;0.80;;;0.70;;
9124;SDS011;4597;48.730;9.114;2023-12-22T02:12:56;0.47;;;0.47;;
9124;SDS011;4597;48.730;9.114;2023-12-22T02:15:22;0.53;;;0.53;;
9124;SDS011;4597;48.730;9.114;2023-12-22T02:18:03;1.70;;;0.47;;
9124;SDS011;4597;48.730;9.114;2023-12-22T02:20:34;0.50;;;0.50;;
9124;SDS011;4597;48.730;9.114;2023-12-22T02:23:00;1.23;;;0.60;;
9124;SDS011;4597;48.730;9.114;2023-12-22T02:25:25;0.40;;;0.40;;
9124;SDS011;4597;48.730;9.114;2023-12-22T02:27:53;0.50;;;0.50;;
9124;SDS011;4597;48.730;9.114;2023-12-22T02:30:38;1.03;;;0.53;;
9124;SDS011;4597;48.730;9.114;2023-12-22T02:33:22;0.67;;;0.50;;
9124;SDS011;4597;48.730;9.114;2023-12-22T02:35:49;2.07;;;1.00;;
9124;SDS011;4597;48.730;9.114;2023-12-22T02:38:16;0.67;;;0.40;;
9124;SDS011;4597;48.730;9.114;2023-12-22T02:40:44;0.70;;;0.70;;
9124;SDS011;4597;48.730;9.114;2023-12-22T02:43:10;1.40;;;1.00;;
9124;SDS011;4597;48.730;9.114;2023-12-22T02:45:36;0.67;;;0.67;;
9124;SDS011;4597;48.730;9.114;2023-12-22T02:48:02;0.37;;;0.37;;
9124;SDS011;4597;48.730;9.114;2023-12-22T02:50:27;2.80;;;0.73;;
9124;SDS011;4597;48.730;9.114;2023-12-22T02:52:53;1.90;;;0.87;;
9124;SDS011;4597;48.730;9.114;2023-12-22T02:55:18;3.87;;;0.80;;
9124;SDS011;4597;48.730;9.114;2023-12-22T02:57:44;0.70;;;0.70;;
9124;SDS011;4597;48.730;9.114;2023-12-22T03:00:09;1.00;;;0.50;;
9124;SDS011;4597;48.730;9.114;2023-12-22T03:02:35;0.77;;;0.67;;
9124;SDS011;4597;48.730;9.114;2023-12-22T03:05:01;2.07;;;1.03;;
9124;SDS011;4597;48.730;9.114;2023-12-22T03:07:26;2.00;;;1.07;;
9124;SDS011;4597;48.730;9.114;2023-12-22T03:09:52;2.67;;;0.87;;
9124;SDS011;4597;48.730;9.114;2023-12-22T03:12:17;4.27;;;0.87;;
9124;SDS011;4597;48.730;9.114;2023-12-22T03:14:43;2.57;;;0.80;;
9124;SDS011;4597;48.730;9.114;2023-12-22T03:17:08;0.93;;;0.80;;
9124;SDS011;4597;48.730;9.114;2023-12-22T03:19:35;1.57;;;0.83;;
9124;SDS011;4597;48.730;9.114;2023-12-22T03:22:01;3.40;;;0.80;;
9124;SDS011;4597;48.730;9.114;2023-12-22T03:24:27;0.73;;;0.73;;
9124;SDS011;4597;48.730;9.114;2023-12-22T03:26:53;1.07;;;0.50;;
9124;SDS011;4597;48.730;9.114;2023-12-22T03:29:19;1.60;;;0.70;;
9124;SDS011;4597;48.730;9.114;2023-12-22T03:31:45;1.50;;;0.87;;
9124;SDS011;4597;48.730;9.114;2023-12-22T03:34:11;1.60;;;0.93;;
9124;SDS011;4597;48.730;9.114;2023-12-22T03:36:36;1.70;;;0.93;;
9124;SDS011;4597;48.730;9.114;2023-12-22T03:39:02;2.23;;;0.90;;
9124;SDS011;4597;48.730;9.114;2023-12-22T03:41:28;2.70;;;0.90;;
9124;SDS011;4597;48.730;9.114;2023-12-22T03:43:55;0.40;;;0.40;;
9124;SDS011;4597;48.730;9.114;2023-12-22T03:46:20;0.80;;;0.70;;
9124;SDS011;4597;48.730;9.114;2023-12-22T03:48:46;0.73;;;0.50;;
9124;SDS011;4597;48.730;9.114;2023-12-22T03:51:12;2.67;;;0.80;;
9124;SDS011;4597;48.730;9.114;2023-12-22T03:53:39;0.97;;;0.60;;
9124;SDS011;4597;48.730;9.114;2023-12-22T03:56:06;1.10;;;0.77;;
9124;SDS011;4597;48.730;9.114;2023-12-22T03:58:32;0.67;;;0.60;;
9124;SDS011;4597;48.730;9.114;2023-12-22T04:00:58;1.37;;;1.00;;
9124;SDS011;4597;48.730;9.114;2023-12-22T04:03:23;1.50;;;0.70;;
9124;SDS011;4597;48.730;9.114;2023-12-22T04:05:49;0.97;;;0.60;;
9124;SDS011;4597;48.730;9.114;2023-12-22T04:08:14;1.37;;;0.90;;
9124;SDS011;4597;48.730;9.114;2023-12-22T04:10:40;1.70;;;0.80;;
9124;SDS011;4597;48.730;9.114;2023-12-22T04:13:05;0.80;;;0.80;;
9124;SDS011;4597;48.730;9.114;2023-12-22T04:15:31;0.67;;;0.67;;
9124;SDS011;4597;48.730;9.114;2023-12-22T04:17:56;1.90;;;1.00;;
9124;SDS011;4597;48.730;9.114;2023-12-22T04:20:22;1.50;;;0.80;;
9124;SDS011;4597;48.730;9.114;2023-12-22T04:22:49;1.67;;;0.80;;
9124;SDS011;4597;48.730;9.114;2023-12-22T04:25:14;3.73;;;0.70;;
9124;SDS011;4597;48.730;9.114;2023-12-22T04:27:40;5.50;;;1.20;;
9124;SDS011;4597;48.730;9.114;2023-12-22T04:30:05;2.07;;;0.87;;
9124;SDS011;4597;48.730;9.114;2023-12-22T04:32:31;0.93;;;0.73;;
9124;SDS011;4597;48.730;9.114;2023-12-22T04:34:57;0.90;;;0.90;;
9124;SDS011;4597;48.730;9.114;2023-12-22T04:37:22;1.10;;;0.73;;
9124;SDS011;4597;48.730;9.114;2023-12-22T04:39:49;2.10;;;1.23;;
9124;SDS011;4597;48.730;9.114;2023-12-22T04:42:14;1.23;;;0.80;;
9124;SDS011;4597;48.730;9.114;2023-12-22T04:44:40;2.07;;;1.20;;
9124;SDS011;4597;48.730;9.114;2023-12-22T04:47:05;0.50;;;0.50;;
9124;SDS011;4597;48.730;9.114;2023-12-22T04:49:31;1.83;;;0.70;;
9124;SDS011;4597;48.730;9.114;2023-12-22T04:51:56;1.03;;;0.80;;
9124;SDS011;4597;48.730;9.114;2023-12-22T04:54:22;2.90;;;0.80;;
9124;SDS011;4597;48.730;9.114;2023-12-22T04:56:47;2.23;;;0.97;;
9124;SDS011;4597;48.730;9.114;2023-12-22T04:59:13;2.20;;;0.73;;
9124;SDS011;4597;48.730;9.114;2023-12-22T05:01:38;2.73;;;0.93;;
9124;SDS011;4597;48.730;9.114;2023-12-22T05:04:04;0.83;;;0.70;;
9124;SDS011;4597;48.730;9.114;2023-12-22T05:06:30;1.87;;;0.80;;
9124;SDS011;4597;48.730;9.114;2023-12-22T05:08:56;1.20;;;0.90;;
9124;SDS011;4597;48.730;9.114;2023-12-22T05:11:21;1.20;;;1.10;;
9124;SDS011;4597;48.730;9.114;2023-12-22T05:13:47;2.90;;;1.07;;
9124;SDS011;4597;48.730;9.114;2023-12-22T05:16:13;1.53;;;0.80;;
9124;SDS011;4597;48.730;9.114;2023-12-22T05:18:39;4.53;;;1.43;;
9124;SDS011;4597;48.730;9.114;2023-12-22T05:21:04;0.93;;;0.80;;
9124;SDS011;4597;48.730;9.114;2023-12-22T05:23:30;3.97;;;1.20;;
9124;SDS011;4597;48.730;9.114;2023-12-22T05:25:55;3.10;;;1.20;;
9124;SDS011;4597;48.730;9.114;2023-12-22T05:28:21;1.87;;;1.20;;
9124;SDS011;4597;48.730;9.114;2023-12-22T05:30:46;3.23;;;1.20;;
9124;SDS011;4597;48.730;9.114;2023-12-22T05:33:12;3.33;;;1.00;;
9124;SDS011;4597;48.730;9.114;2023-12-22T05:35:38;1.17;;;1.00;;
9124;SDS011;4597;48.730;9.114;2023-12-22T05:38:03;1.20;;;1.10;;
9124;SDS011;4597;48.730;9.114;2023-12-22T05:40:29;3.33;;;1.57;;
9124;SDS011;4597;48.730;9.114;2023-12-22T05:42:56;2.87;;;1.20;;
9124;SDS011;4597;48.730;9.114;2023-12-22T05:45:22;4.43;;;1.30;;
9124;SDS011;4597;48.730;9.114;2023-12-22T05:47:49;3.53;;;1.40;;
9124;SDS011;4597;48.730;9.114;2023-12-22T05:50:15;1.57;;;1.00;;
9124;SDS011;4597;48.730;9.114;2023-12-22T05:52:41;2.33;;;0.90;;
9124;SDS011;4597;48.730;9.114;2023-12-22T05:55:07;2.93;;;1.10;;
9124;SDS011;4597;48.730;9.114;2023-12-22T05:57:33;7.67;;;1.60;;
9124;SDS011;4597;48.730;9.114;2023-12-22T05:59:59;3.73;;;0.87;;
9124;SDS011;4597;48.730;9.114;2023-12-22T06:02:25;1.57;;;0.50;;
9124;SDS011;4597;48.730;9.114;2023-12-22T06:04:50;4.60;;;0.97;;
9124;SDS011;4597;48.730;9.114;2023-12-22T06:07:16;2.53;;;1.07;;
9124;SDS011;4597;48.730;9.114;2023-12-22T06:09:41;2.60;;;1.20;;
9124;SDS011;4597;48.730;9.114;2023-12-22T06:12:07;3.83;;;1.33;;
9124;SDS011;4597;48.730;9.114;2023-12-22T06:14:32;3.77;;;1.10;;
9124;SDS011;4597;48.730;9.114;2023-12-22T06:17:00;2.97;;;1.20;;
9124;SDS011;4597;48.730;9.114;2023-12-22T06:19:25;1.53;;;0.97;;
9124;SDS011;4597;48.730;9.114;2023-12-22T06:21:53;4.53;;;1.63;;
9124;SDS011;4597;48.730;9.114;2023-12-22T06:24:19;3.97;;;1.30;;
9124;SDS011;4597;48.730;9.114;2023-12-22T06:26:44;5.17;;;1.13;;
9124;SDS011;4597;48.730;9.114;2023-12-22T06:29:10;7.53;;;1.57;;
9124;SDS011;4597;48.730;9.114;2023-12-22T06:31:35;3.03;;;1.00;;
9124;SDS011;4597;48.730;9.114;2023-12-22T06:34:01;2.67;;;1.40;;
9124;SDS011;4597;48.730;9.114;2023-12-22T06:36:27;0.83;;;0.83;;
9124;SDS011;4597;48.730;9.114;2023-12-22T06:38:53;3.60;;;1.13;;
9124;SDS011;4597;48.730;9.114;2023-12-22T06:41:23;2.20;;;1.20;;
9124;SDS011;4597;48.730;9.114;2023-12-22T06:43:52;4.13;;;1.40;;
9124;SDS011;4597;48.730;9.114;2023-12-22T06:46:18;3.20;;;1.20;;
9124;SDS011;4597;48.730;9.114;2023-12-22T06:48:45;4.50;;;1.23;;
9124;SDS011;4597;48.730;9.114;2023-12-22T06:51:17;3.77;;;1.17;;
9124;SDS011;4597;48.730;9.114;2023-12-22T06:53:43;2.43;;;0.90;;
9124;SDS011;4597;48.730;9.114;2023-12-22T06:56:20;1.17;;;0.90;;
9124;SDS011;4597;48.730;9.114;2023-12-22T06:58:50;2.70;;;1.17;;
9124;SDS011;4597;48.730;9.114;2023-12-22T07:03:50;3.17;;;1.13;;
9124;SDS011;4597;48.730;9.114;2023-12-22T07:06:15;3.60;;;1.40;;
9124;SDS011;4597;48.730;9.114;2023-12-22T07:08:42;5.00;;;0.87;;
9124;SDS011;4597;48.730;9.114;2023-12-22T07:11:08;2.30;;;1.10;;
9124;SDS011;4597;48.730;9.114;2023-12-22T07:13:37;2.27;;;1.00;;
9124;SDS011;4597;48.730;9.114;2023-12-22T07:16:03;4.87;;;1.67;;
9124;SDS011;4597;48.730;9.114;2023-12-22T07:18:30;1.63;;;0.83;;
9124;SDS011;4597;48.730;9.114;2023-12-22T07:20:56;2.13;;;1.10;;
9124;SDS011;4597;48.730;9.114;2023-12-22T07:23:22;0.83;;;0.70;;
9124;SDS011;4597;48.730;9.114;2023-12-22T07:25:48;4.17;;;1.10;;
9124;SDS011;4597;48.730;9.114;2023-12-22T07:28:13;3.03;;;1.47;;
9124;SDS011;4597;48.730;9.114;2023-12-22T07:30:40;6.80;;;2.00;;
9124;SDS011;4597;48.730;9.114;2023-12-22T07:33:06;1.40;;;1.30;;
9124;SDS011;4597;48.730;9.114;2023-12-22T07:35:31;2.40;;;1.47;;
9124;SDS011;4597;48.730;9.114;2023-12-22T07:37:57;2.77;;;0.93;;
9124;SDS011;4597;48.730;9.114;2023-12-22T07:40:22;3.63;;;1.50;;
9124;SDS011;4597;48.730;9.114;2023-12-22T07:42:48;2.60;;;1.30;;
9124;SDS011;4597;48.730;9.114;2023-12-22T07:45:15;2.57;;;1.10;;
9124;SDS011;4597;48.730;9.114;2023-12-22T07:47:41;2.80;;;1.20;;
9124;SDS011;4597;48.730;9.114;2023-12-22T07:50:07;1.57;;;0.80;;
9124;SDS011;4597;48.730;9.114;2023-12-22T07:52:34;1.80;;;1.00;;
9124;SDS011;4597;48.730;9.114;2023-12-22T07:55:03;4.50;;;1.53;;
9124;SDS011;4597;48.730;9.114;2023-12-22T07:57:30;4.13;;;1.27;;
9124;SDS011;4597;48.730;9.114;2023-12-22T07:59:55;2.33;;;1.07;;
9124;SDS011;4597;48.730;9.114;2023-12-22T08:02:21;2.93;;;1.17;;
9124;SDS011;4597;48.730;9.114;2023-12-22T08:04:47;1.97;;;1.10;;
9124;SDS011;4597;48.730;9.114;2023-12-22T08:07:14;3.60;;;1.20;;
9124;SDS011;4597;48.730;9.114;2023-12-22T08:09:39;5.50;;;1.47;;
9124;SDS011;4597;48.730;9.114;2023-12-22T08:12:05;3.57;;;1.50;;
9124;SDS011;4597;48.730;9.114;2023-12-22T08:14:31;2.10;;;1.20;;
9124;SDS011;4597;48.730;9.114;2023-12-22T08:16:56;3.83;;;1.30;;
9124;SDS011;4597;48.730;9.114;2023-12-22T08:19:22;1.93;;;1.60;;
9124;SDS011;4597;48.730;9.114;2023-12-22T08:21:47;4.73;;;1.60;;
9124;SDS011;4597;48.730;9.114;2023-12-22T08:24:13;4.00;;;1.53;;
9124;SDS011;4597;48.730;9.114;2023-12-22T08:26:38;5.37;;;1.40;;
9124;SDS011;4597;48.730;9.114;2023-12-22T08:29:04;3.37;;;1.70;;
9124;SDS011;4597;48.730;9.114;2023-12-22T08:31:29;4.67;;;1.53;;
9124;SDS011;4597;48.730;9.114;2023-12-22T08:33:55;1.47;;;1.10;;
9124;SDS011;4597;48.730;9.114;2023-12-22T08:36:20;1.90;;;1.20;;
9124;SDS011;4597;48.730;9.114;2023-12-22T08:38:46;6.30;;;1.77;;
9124;SDS011;4597;48.730;9.114;2023-12-22T08:41:11;4.77;;;1.47;;
9124;SDS011;4597;48.730;9.114;2023-12-22T08:43:39;8.27;;;1.90;;
9124;SDS011;4597;48.730;9.114;2023-12-22T08:46:05;3.50;;;1.43;;
9124;SDS011;4597;48.730;9.114;2023-12-22T08:48:30;6.63;;;2.07;;
9124;SDS011;4597;48.730;9.114;2023-12-22T08:50:56;5.97;;;1.70;;
9124;SDS011;4597;48.730;9.114;2023-12-22T08:53:22;3.93;;;1.90;;
9124;SDS011;4597;48.730;9.114;2023-12-22T08:55:47;3.07;;;1.80;;
9124;SDS011;4597;48.730;9.114;2023-12-22T08:58:13;3.53;;;1.40;;
9124;SDS011;4597;48.730;9.114;2023-12-22T09:00:38;6.60;;;1.70;;
9124;SDS011;4597;48.730;9.114;2023-12-22T09:03:04;5.23;;;2.07;;
9124;SDS011;4597;48.730;9.114;2023-12-22T09:05:29;2.57;;;1.53;;
9124;SDS011;4597;48.730;9.114;2023-12-22T09:07:55;3.70;;;1.40;;
9124;SDS011;4597;48.730;9.114;2023-12-22T09:10:20;4.83;;;1.57;;
9124;SDS011;4597;48.730;9.114;2023-12-22T09:12:46;8.83;;;1.80;;
9124;SDS011;4597;48.730;9.114;2023-12-22T09:15:11;3.17;;;1.47;;
9124;SDS011;4597;48.730;9.114;2023-12-22T09:17:37;4.87;;;1.77;;
9124;SDS011;4597;48.730;9.114;2023-12-22T09:20:03;4.10;;;1.70;;
9124;SDS011;4597;48.730;9.114;2023-12-22T09:22:29;6.07;;;1.43;;
9124;SDS011;4597;48.730;9.114;2023-12-22T09:24:55;2.83;;;1.60;;
9124;SDS011;4597;48.730;9.114;2023-12-22T09:27:20;5.70;;;1.70;;
9124;SDS011;4597;48.730;9.114;2023-12-22T09:29:46;5.70;;;1.60;;
9124;SDS011;4597;48.730;9.114;2023-12-22T09:32:11;5.43;;;1.53;;
9124;SDS011;4597;48.730;9.114;2023-12-22T09:34:37;2.53;;;1.43;;
9124;SDS011;4597;48.730;9.114;2023-12-22T09:37:04;6.10;;;1.80;;
9124;SDS011;4597;48.730;9.114;2023-12-22T09:39:29;6.00;;;1.73;;
9124;SDS011;4597;48.730;9.114;2023-12-22T09:41:54;6.80;;;1.97;;
9124;SDS011;4597;48.730;9.114;2023-12-22T09:44:20;4.20;;;1.67;;
9124;SDS011;4597;48.730;9.114;2023-12-22T09:46:50;3.27;;;1.30;;
9124;SDS011;4597;48.730;9.114;2023-12-22T09:49:17;3.87;;;1.67;;
9124;SDS011;4597;48.730;9.114;2023-12-22T09:51:44;6.57;;;2.03;;
9124;SDS011;4597;48.730;9.114;2023-12-22T09:54:10;6.03;;;1.87;;
9124;SDS011;4597;48.730;9.114;2023-12-22T09:56:36;4.50;;;1.80;;
9124;SDS011;4597;48.730;9.114;2023-12-22T09:59:08;4.00;;;1.57;;
9124;SDS011;4597;48.730;9.114;2023-12-22T10:01:37;2.53;;;1.80;;
9124;SDS011;4597;48.730;9.114;2023-12-22T10:04:11;4.50;;;1.70;;
9124;SDS011;4597;48.730;9.114;2023-12-22T10:06:40;4.77;;;1.70;;
9124;SDS011;4597;48.730;9.114;2023-12-22T10:09:06;2.97;;;1.27;;
9124;SDS011;4597;48.730;9.114;2023-12-22T10:11:34;9.03;;;1.87;;
9124;SDS011;4597;48.730;9.114;2023-12-22T10:14:01;4.80;;;1.50;;
9124;SDS011;4597;48.730;9.114;2023-12-22T10:16:28;6.23;;;1.60;;
9124;SDS011;4597;48.730;9.114;2023-12-22T10:18:54;1.83;;;1.30;;
9124;SDS011;4597;48.730;9.114;2023-12-22T10:21:20;4.27;;;2.17;;
9124;SDS011;4597;48.730;9.114;2023-12-22T10:23:45;7.00;;;1.73;;
9124;SDS011;4597;48.730;9.114;2023-12-22T10:26:11;4.17;;;1.40;;
9124;SDS011;4597;48.730;9.114;2023-12-22T10:28:37;5.23;;;2.10;;
9124;SDS011;4597;48.730;9.114;2023-12-22T10:31:02;5.10;;;1.50;;
9124;SDS011;4597;48.730;9.114;2023-12-22T10:33:31;8.10;;;2.20;;
9124;SDS011;4597;48.730;9.114;2023-12-22T10:35:58;4.27;;;1.83;;
9124;SDS011;4597;48.730;9.114;2023-12-22T10:38:24;8.30;;;1.73;;
9124;SDS011;4597;48.730;9.114;2023-12-22T10:41:03;3.93;;;1.33;;
9124;SDS011;4597;48.730;9.114;2023-12-22T10:43:30;2.40;;;1.50;;
9124;SDS011;4597;48.730;9.114;2023-12-22T10:45:56;5.70;;;1.50;;
9124;SDS011;4597;48.730;9.114;2023-12-22T10:48:24;3.80;;;1.60;;
9124;SDS011;4597;48.730;9.114;2023-12-22T10:50:50;5.23;;;2.00;;
9124;SDS011;4597;48.730;9.114;2023-12-22T10:53:15;1.93;;;1.50;;
9124;SDS011;4597;48.730;9.114;2023-12-22T10:55:41;2.27;;;1.03;;
9124;SDS011;4597;48.730;9.114;2023-12-22T10:58:06;4.10;;;1.10;;
9124;SDS011;4597;48.730;9.114;2023-12-22T11:00:34;4.07;;;1.30;;
9124;SDS011;4597;48.730;9.114;2023-12-22T11:03:03;3.20;;;1.40;;
9124;SDS011;4597;48.730;9.114;2023-12-22T11:05:33;4.93;;;1.60;;
9124;SDS011;4597;48.730;9.114;2023-12-22T11:08:01;3.30;;;1.73;;
9124;SDS011;4597;48.730;9.114;2023-12-22T11:10:28;3.07;;;1.17;;
9124;SDS011;4597;48.730;9.114;2023-12-22T11:12:56;2.97;;;1.47;;
9124;SDS011;4597;48.730;9.114;2023-12-22T11:15:22;3.30;;;1.40;;
9124;SDS011;4597;48.730;9.114;2023-12-22T11:17:49;4.73;;;1.20;;
9124;SDS011;4597;48.730;9.114;2023-12-22T11:20:16;2.27;;;1.40;;
9124;SDS011;4597;48.730;9.114;2023-12-22T11:22:43;3.77;;;1.00;;
9124;SDS011;4597;48.730;9.114;2023-12-22T11:25:10;4.27;;;1.30;;
9124;SDS011;4597;48.730;9.114;2023-12-22T11:27:36;6.10;;;1.43;;
9124;SDS011;4597;48.730;9.114;2023-12-22T11:30:02;1.33;;;1.03;;
9124;SDS011;4597;48.730;9.114;2023-12-22T11:32:33;1.80;;;1.47;;
9124;SDS011;4597;48.730;9.114;2023-12-22T11:34:59;1.10;;;0.73;;
9124;SDS011;4597;48.730;9.114;2023-12-22T11:37:25;3.63;;;1.23;;
9124;SDS011;4597;48.730;9.114;2023-12-22T11:39:50;1.53;;;1.07;;
9124;SDS011;4597;48.730;9.114;2023-12-22T11:42:18;1.07;;;0.97;;
9124;SDS011;4597;48.730;9.114;2023-12-22T11:44:50;3.90;;;1.20;;
9124;SDS011;4597;48.730;9.114;2023-12-22T11:47:17;1.60;;;0.87;;
9124;SDS011;4597;48.730;9.114;2023-12-22T11:49:47;1.87;;;1.00;;
9124;SDS011;4597;48.730;9.114;2023-12-22T11:52:18;2.00;;;1.17;;
9124;SDS011;4597;48.730;9.114;2023-12-22T11:54:57;1.67;;;1.10;;
9124;SDS011;4597;48.730;9.114;2023-12-22T11:57:30;1.53;;;1.00;;
9124;SDS011;4597;48.730;9.114;2023-12-22T11:59:56;1.03;;;0.90;;
9124;SDS011;4597;48.730;9.114;2023-12-22T12:02:23;3.03;;;1.00;;
9124;SDS011;4597;48.730;9.114;2023-12-22T12:04:49;2.73;;;0.83;;
9124;SDS011;4597;48.730;9.114;2023-12-22T12:10:04;0.60;;;0.60;;
9124;SDS011;4597;48.730;9.114;2023-12-22T12:12:33;2.40;;;0.70;;
9124;SDS011;4597;48.730;9.114;2023-12-22T12:15:05;2.17;;;1.97;;
9124;SDS011;4597;48.730;9.114;2023-12-22T12:17:32;1.67;;;0.87;;
9124;SDS011;4597;48.730;9.114;2023-12-22T12:19:58;4.03;;;0.90;;
9124;SDS011;4597;48.730;9.114;2023-12-22T12:22:24;0.80;;;0.80;;
9124;SDS011;4597;48.730;9.114;2023-12-22T12:24:51;1.23;;;0.60;;
9124;SDS011;4597;48.730;9.114;2023-12-22T12:27:17;1.77;;;1.10;;
9124;SDS011;4597;48.730;9.114;2023-12-22T12:29:44;0.60;;;0.60;;
9124;SDS011;4597;48.730;9.114;2023-12-22T12:32:10;0.60;;;0.60;;
9124;SDS011;4597;48.730;9.114;2023-12-22T12:34:39;1.43;;;0.80;;
9124;SDS011;4597;48.730;9.114;2023-12-22T12:37:08;0.60;;;0.50;;
9124;SDS011;4597;48.730;9.114;2023-12-22T12:39:34;0.33;;;0.33;;
9124;SDS011;4597;48.730;9.114;2023-12-22T12:42:00;0.83;;;0.60;;
9124;SDS011;4597;48.730;9.114;2023-12-22T12:44:29;0.93;;;0.73;;
9124;SDS011;4597;48.730;9.114;2023-12-22T12:46:57;0.47;;;0.43;;
9124;SDS011;4597;48.730;9.114;2023-12-22T12:49:23;0.50;;;0.50;;
9124;SDS011;4597;48.730;9.114;2023-12-22T12:51:52;2.17;;;0.60;;
9124;SDS011;4597;48.730;9.114;2023-12-22T12:54:18;0.50;;;0.50;;
9124;SDS011;4597;48.730;9.114;2023-12-22T12:56:45;0.67;;;0.50;;
9124;SDS011;4597;48.730;9.114;2023-12-22T12:59:12;0.93;;;0.53;;
9124;SDS011;4597;48.730;9.114;2023-12-22T13:01:43;0.33;;;0.33;;
9124;SDS011;4597;48.730;9.114;2023-12-22T13:04:10;0.50;;;0.40;;
9124;SDS011;4597;48.730;9.114;2023-12-22T13:06:49;0.40;;;0.40;;
9124;SDS011;4597;48.730;9.114;2023-12-22T13:09:16;0.43;;;0.43;;
9124;SDS011;4597;48.730;9.114;2023-12-22T13:11:43;0.50;;;0.50;;
9124;SDS011;4597;48.730;9.114;2023-12-22T13:14:22;1.60;;;0.60;;
9124;SDS011;4597;48.730;9.114;2023-12-22T13:16:53;0.37;;;0.37;;
9124;SDS011;4597;48.730;9.114;2023-12-22T13:19:21;0.50;;;0.50;;
9124;SDS011;4597;48.730;9.114;2023-12-22T13:21:50;0.30;;;0.30;;
9124;SDS011;4597;48.730;9.114;2023-12-22T13:24:16;1.73;;;0.30;;
9124;SDS011;4597;48.730;9.114;2023-12-22T13:26:42;0.50;;;0.50;;
9124;SDS011;4597;48.730;9.114;2023-12-22T13:29:09;0.50;;;0.50;;
9124;SDS011;4597;48.730;9.114;2023-12-22T13:31:39;0.53;;;0.53;;
9124;SDS011;4597;48.730;9.114;2023-12-22T13:34:11;0.40;;;0.40;;
9124;SDS011;4597;48.730;9.114;2023-12-22T13:36:38;0.50;;;0.50;;
9124;SDS011;4597;48.730;9.114;2023-12-22T13:39:04;0.20;;;0.20;;
9124;SDS011;4597;48.730;9.114;2023-12-22T13:41:32;0.50;;;0.50;;
9124;SDS011;4597;48.730;9.114;2023-12-22T13:44:06;0.93;;;0.63;;
9124;SDS011;4597;48.730;9.114;2023-12-22T13:46:32;0.63;;;0.50;;
9124;SDS011;4597;48.730;9.114;2023-12-22T13:49:00;1.27;;;0.60;;
9124;SDS011;4597;48.730;9.114;2023-12-22T13:51:27;0.40;;;0.40;;
9124;SDS011;4597;48.730;9.114;2023-12-22T13:54:02;0.60;;;0.60;;
9124;SDS011;4597;48.730;9.114;2023-12-22T13:56:32;0.60;;;0.60;;
9124;SDS011;4597;48.730;9.114;2023-12-22T13:59:00;0.43;;;0.43;;
9124;SDS011;4597;48.730;9.114;2023-12-22T14:01:25;0.60;;;0.60;;
9124;SDS011;4597;48.730;9.114;2023-12-22T14:03:51;0.53;;;0.53;;
9124;SDS011;4597;48.730;9.114;2023-12-22T14:06:17;1.00;;;0.50;;
9124;SDS011;4597;48.730;9.114;2023-12-22T14:08:42;0.40;;;0.40;;
9124;SDS011;4597;48.730;9.114;2023-12-22T14:11:08;0.87;;;0.50;;
9124;SDS011;4597;48.730;9.114;2023-12-22T14:13:34;0.50;;;0.50;;
9124;SDS011;4597;48.730;9.114;2023-12-22T14:16:04;0.40;;;0.40;;
9124;SDS011;4597;48.730;9.114;2023-12-22T14:18:30;0.43;;;0.43;;
9124;SDS011;4597;48.730;9.114;2023-12-22T14:20:56;0.40;;;0.40;;
9124;SDS011;4597;48.730;9.114;2023-12-22T14:23:22;0.33;;;0.33;;
9124;SDS011;4597;48.730;9.114;2023-12-22T14:25:47;0.40;;;0.40;;
9124;SDS011;4597;48.730;9.114;2023-12-22T14:28:13;0.43;;;0.43;;
9124;SDS011;4597;48.730;9.114;2023-12-22T14:30:39;0.40;;;0.40;;
9124;SDS011;4597;48.730;9.114;2023-12-22T14:33:04;0.50;;;0.50;;
9124;SDS011;4597;48.730;9.114;2023-12-22T14:35:30;0.30;;;0.30;;
9124;SDS011;4597;48.730;9.114;2023-12-22T14:37:55;0.30;;;0.30;;
9124;SDS011;4597;48.730;9.114;2023-12-22T14:40:21;0.30;;;0.30;;
9124;SDS011;4597;48.730;9.114;2023-12-22T14:42:46;0.30;;;0.30;;
9124;SDS011;4597;48.730;9.114;2023-12-22T14:45:12;0.50;;;0.50;;
9124;SDS011;4597;48.730;9.114;2023-12-22T14:47:37;0.30;;;0.30;;
9124;SDS011;4597;48.730;9.114;2023-12-22T14:50:03;0.37;;;0.37;;
9124;SDS011;4597;48.730;9.114;2023-12-22T14:52:29;0.50;;;0.50;;
9124;SDS011;4597;48.730;9.114;2023-12-22T14:54:58;0.60;;;0.60;;
9124;SDS011;4597;48.730;9.114;2023-12-22T14:57:24;0.40;;;0.40;;
9124;SDS011;4597;48.730;9.114;2023-12-22T14:59:51;1.37;;;0.60;;
9124;SDS011;4597;48.730;9.114;2023-12-22T15:02:16;0.53;;;0.53;;
9124;SDS011;4597;48.730;9.114;2023-12-22T15:04:42;0.40;;;0.40;;
9124;SDS011;4597;48.730;9.114;2023-12-22T15:07:07;0.60;;;0.60;;
9124;SDS011;4597;48.730;9.114;2023-12-22T15:09:33;0.50;;;0.50;;
9124;SDS011;4597;48.730;9.114;2023-12-22T15:12:03;0.60;;;0.60;;
9124;SDS011;4597;48.730;9.114;2023-12-22T15:14:29;0.47;;;0.47;;
9124;SDS011;4597;48.730;9.114;2023-12-22T15:16:54;0.50;;;0.50;;